Time;durP1;ratioP1;P1;durP2;ratioP2;P2;SDS_P1;SDS_P2;PMS_P1;PMS_P2;Temp;Humidity;BMP_temperature;BMP_pressure;BME280_temperature;BME280_humidity;BME280_pressure;Samples;Min_cycle;Max_cycle;Signal;HPM_P1;HPM_P2
2024/02/22 00:01:18;;;;;;;2.65;2.03;;;;;9.80;97481.00;;;;4839983;29;20058;-66
2024/02/22 00:03:45;;;;;;;2.25;1.70;;;;;9.80;97467.00;;;;4841230;29;20469;-66
2024/02/22 00:06:12;;;;;;;3.38;1.60;;;;;9.80;97477.00;;;;4841136;29;20467;-66
2024/02/22 00:08:39;;;;;;;2.60;2.00;;;;;9.90;97465.00;;;;4840009;29;20049;-66
2024/02/22 00:11:05;;;;;;;1.48;1.38;;;;;9.80;97451.00;;;;4841151;29;20453;-66
2024/02/22 00:13:32;;;;;;;3.53;1.50;;;;;9.80;97444.00;;;;4843447;29;20141;-67
2024/02/22 00:16:03;;;;;;;1.60;1.50;;;;;9.80;97441.00;;;;4843380;29;20042;-66
2024/02/22 00:18:30;;;;;;;1.40;1.30;;;;;9.80;97441.00;;;;4843246;29;20503;-66
2024/02/22 00:20:56;;;;;;;1.60;1.50;;;;;9.90;97443.00;;;;4843362;29;20061;-66
2024/02/22 00:23:23;;;;;;;1.35;1.15;;;;;9.90;97439.00;;;;4844776;29;20077;-66
2024/02/22 00:25:49;;;;;;;1.38;1.27;;;;;9.80;97431.00;;;;4843149;29;20418;-66
2024/02/22 00:28:17;;;;;;;1.25;1.17;;;;;9.80;97419.00;;;;4843274;29;20054;-66
2024/02/22 00:30:45;;;;;;;1.80;1.20;;;;;9.80;97423.00;;;;4843161;29;20129;-66
2024/02/22 00:33:12;;;;;;;1.95;1.55;;;;;9.80;97417.00;;;;4844491;29;20053;-66
2024/02/22 00:35:38;;;;;;;1.48;1.00;;;;;9.80;97410.00;;;;4844516;29;20165;-66
2024/02/22 00:38:05;;;;;;;2.17;1.35;;;;;9.80;97410.00;;;;4844603;29;20132;-66
2024/02/22 00:40:32;;;;;;;2.60;1.35;;;;;9.80;97398.00;;;;4844157;29;20094;-66
2024/02/22 00:42:59;;;;;;;1.35;1.00;;;;;9.90;97401.00;;;;4843046;29;20054;-66
2024/02/22 00:45:26;;;;;;;1.15;1.00;;;;;9.90;97397.00;;;;4844232;29;20150;-66
2024/02/22 00:47:53;;;;;;;1.40;0.90;;;;;9.90;97402.00;;;;4844078;29;20050;-66
2024/02/22 00:50:19;;;;;;;3.22;1.17;;;;;9.90;97392.00;;;;4842704;29;20078;-66
2024/02/22 00:52:47;;;;;;;0.85;0.85;;;;;9.90;97381.00;;;;4844064;29;20050;-66
2024/02/22 00:55:13;;;;;;;1.08;0.98;;;;;9.90;97384.00;;;;4827265;29;20046;-66
2024/02/22 00:57:40;;;;;;;2.00;1.10;;;;;9.90;97389.00;;;;4843938;29;20057;-65
2024/02/22 01:00:07;;;;;;;1.80;0.93;;;;;9.90;97375.00;;;;4842897;29;20054;-65
2024/02/22 01:02:33;;;;;;;0.80;0.80;;;;;9.90;97374.00;;;;4843661;29;20049;-65
2024/02/22 01:05:00;;;;;;;1.10;1.00;;;;;10.00;97371.00;;;;4843901;29;20041;-65
2024/02/22 01:07:27;;;;;;;1.45;1.02;;;;;10.00;97366.00;;;;4843834;29;20042;-65
2024/02/22 01:09:53;;;;;;;0.98;0.90;;;;;10.00;97368.00;;;;4844306;29;20042;-65
2024/02/22 01:12:20;;;;;;;1.95;1.00;;;;;9.90;97361.00;;;;4843603;29;20411;-65
2024/02/22 01:14:46;;;;;;;1.10;1.00;;;;;9.90;97350.00;;;;4844775;29;20468;-65
2024/02/22 01:17:13;;;;;;;0.90;0.90;;;;;9.90;97360.00;;;;4827446;29;20149;-65
2024/02/22 01:19:40;;;;;;;1.60;1.10;;;;;9.90;97347.00;;;;4844144;29;20111;-65
2024/02/22 01:22:08;;;;;;;1.23;1.00;;;;;9.90;97349.00;;;;4843271;29;20102;-65
2024/02/22 01:24:34;;;;;;;1.10;0.88;;;;;9.90;97340.00;;;;4842977;29;20050;-65
2024/02/22 01:27:01;;;;;;;0.80;0.73;;;;;9.90;97338.00;;;;4842290;29;20414;-65
2024/02/22 01:29:28;;;;;;;0.85;0.77;;;;;10.00;97338.00;;;;4843687;29;20057;-65
2024/02/22 01:31:54;;;;;;;0.77;0.77;;;;;10.00;97325.00;;;;4842230;29;20487;-65
2024/02/22 01:34:21;;;;;;;1.42;0.77;;;;;10.10;97325.00;;;;4843552;29;20050;-65
2024/02/22 01:36:47;;;;;;;0.82;0.60;;;;;10.10;97310.00;;;;4842688;29;20410;-65
2024/02/22 01:39:14;;;;;;;1.20;0.70;;;;;10.10;97310.00;;;;4843584;29;20088;-66
2024/02/22 01:41:41;;;;;;;0.60;0.60;;;;;10.10;97300.00;;;;4843567;29;20064;-66
2024/02/22 01:44:07;;;;;;;0.60;0.60;;;;;10.10;97300.00;;;;4842435;29;20136;-66
2024/02/22 01:46:34;;;;;;;0.75;0.60;;;;;10.10;97300.00;;;;4842104;29;20042;-66
2024/02/22 01:49:02;;;;;;;0.98;0.82;;;;;10.20;97291.00;;;;4842206;29;20511;-65
2024/02/22 01:51:29;;;;;;;0.70;0.70;;;;;10.20;97290.00;;;;4842008;29;20475;-66
2024/02/22 01:53:56;;;;;;;0.55;0.50;;;;;10.20;97281.00;;;;4843162;29;20089;-66
2024/02/22 01:56:23;;;;;;;0.80;0.70;;;;;10.20;97276.00;;;;4842825;29;20042;-66
2024/02/22 01:58:50;;;;;;;0.85;0.85;;;;;10.20;97269.00;;;;4843029;29;20053;-66
2024/02/22 02:01:22;;;;;;;0.60;0.60;;;;;10.10;97254.00;;;;4827043;29;20106;-65
2024/02/22 02:03:49;;;;;;;0.60;0.60;;;;;10.10;97253.00;;;;4841972;29;20148;-66
2024/02/22 02:06:17;;;;;;;0.57;0.57;;;;;10.20;97255.00;;;;4843009;29;20050;-66
2024/02/22 02:08:43;;;;;;;2.20;0.80;;;;;10.20;97235.00;;;;4842775;29;20046;-66
2024/02/22 02:11:10;;;;;;;0.82;0.63;;;;;10.20;97242.00;;;;4841149;29;20129;-66
2024/02/22 02:13:37;;;;;;;0.60;0.60;;;;;10.20;97234.00;;;;4841613;29;20054;-66
2024/02/22 02:16:04;;;;;;;0.60;0.60;;;;;10.20;97237.00;;;;4841179;29;20046;-66
2024/02/22 02:18:30;;;;;;;0.60;0.50;;;;;10.10;97227.00;;;;4841349;29;20141;-66
2024/02/22 02:21:30;;;;;;;0.73;0.73;;;;;10.20;97211.00;;;;4841096;29;20050;-66
2024/02/22 02:24:27;;;;;;;0.52;0.52;;;;;10.20;97214.00;;;;4834920;29;20065;-66
2024/02/22 02:26:55;;;;;;;0.50;0.50;;;;;10.20;97199.00;;;;4825838;29;20058;-66
2024/02/22 02:29:24;;;;;;;1.73;0.50;;;;;10.30;97201.00;;;;4841127;29;20053;-66
2024/02/22 02:31:51;;;;;;;0.50;0.50;;;;;10.30;97194.00;;;;4842279;29;20129;-66
2024/02/22 02:34:17;;;;;;;0.95;0.68;;;;;10.30;97201.00;;;;4840685;29;20054;-66
2024/02/22 02:36:44;;;;;;;0.98;0.68;;;;;10.20;97183.00;;;;4842141;29;20041;-66
2024/02/22 02:39:10;;;;;;;0.50;0.50;;;;;10.20;97172.00;;;;4842188;29;20054;-65
2024/02/22 02:41:37;;;;;;;0.90;0.40;;;;;10.20;97166.00;;;;4842098;29;20052;-65
2024/02/22 02:44:04;;;;;;;0.40;0.40;;;;;10.20;97171.00;;;;4841089;29;20050;-65
2024/02/22 02:46:31;;;;;;;0.40;0.40;;;;;10.20;97160.00;;;;4842020;29;20046;-65
2024/02/22 02:48:57;;;;;;;0.50;0.50;;;;;10.30;97160.00;;;;4842358;29;20050;-65
2024/02/22 02:51:24;;;;;;;0.50;0.50;;;;;10.30;97154.00;;;;4840882;29;20057;-67
2024/02/22 02:53:51;;;;;;;1.88;0.60;;;;;10.40;97147.00;;;;4841175;29;20058;-66
2024/02/22 02:56:17;;;;;;;0.38;0.38;;;;;10.40;97152.00;;;;4840811;29;20054;-66
2024/02/22 02:58:44;;;;;;;0.40;0.40;;;;;10.40;97141.00;;;;4840749;29;20136;-66
2024/02/22 03:01:10;;;;;;;0.40;0.40;;;;;10.40;97148.00;;;;4840510;29;20057;-65
2024/02/22 03:03:37;;;;;;;0.47;0.47;;;;;10.30;97141.00;;;;4842286;29;20460;-66
2024/02/22 03:06:04;;;;;;;1.33;0.50;;;;;10.30;97128.00;;;;4842126;29;20069;-66
2024/02/22 03:08:31;;;;;;;0.50;0.50;;;;;10.30;97135.00;;;;4841985;29;20057;-66
2024/02/22 03:10:57;;;;;;;0.40;0.40;;;;;10.30;97133.00;;;;4840347;29;20057;-65
2024/02/22 03:13:24;;;;;;;0.65;0.47;;;;;10.30;97128.00;;;;4840638;29;20046;-66
2024/02/22 03:15:51;;;;;;;0.93;0.50;;;;;10.30;97124.00;;;;4840379;29;20042;-66
2024/02/22 03:18:18;;;;;;;0.63;0.63;;;;;10.30;97126.00;;;;4841909;29;20046;-67
2024/02/22 03:20:45;;;;;;;0.38;0.38;;;;;10.30;97113.00;;;;4855858;29;20050;-67
2024/02/22 03:23:12;;;;;;;0.50;0.50;;;;;10.40;97122.00;;;;4840760;29;20521;-68
2024/02/22 03:25:39;;;;;;;1.23;0.45;;;;;10.40;97126.00;;;;4842828;29;20081;-68
2024/02/22 03:28:06;;;;;;;0.50;0.50;;;;;10.30;97131.00;;;;4845172;29;20053;-67
2024/02/22 03:30:33;;;;;;;0.55;0.40;;;;;10.40;97124.00;;;;4851494;29;20105;-67
2024/02/22 03:33:01;;;;;;;0.50;0.50;;;;;10.30;97110.00;;;;4852510;29;20050;-66
2024/02/22 03:35:29;;;;;;;0.30;0.30;;;;;10.30;97120.00;;;;4852561;29;20058;-67
2024/02/22 03:37:56;;;;;;;0.40;0.40;;;;;10.30;97108.00;;;;4853862;29;20049;-67
2024/02/22 03:40:23;;;;;;;1.58;0.40;;;;;10.30;97103.00;;;;4845960;29;20050;-68
2024/02/22 03:42:49;;;;;;;1.38;0.50;;;;;10.30;97104.00;;;;4846420;29;20451;-66
2024/02/22 03:45:16;;;;;;;0.40;0.40;;;;;10.30;97104.00;;;;4844854;29;20430;-67
2024/02/22 03:47:43;;;;;;;0.50;0.40;;;;;10.30;97098.00;;;;4865906;29;20052;-67
2024/02/22 03:50:09;;;;;;;0.40;0.40;;;;;10.30;97105.00;;;;4850695;29;20121;-68
2024/02/22 03:52:36;;;;;;;0.40;0.40;;;;;10.30;97091.00;;;;4852379;29;20122;-65
2024/02/22 03:55:03;;;;;;;0.47;0.47;;;;;10.30;97079.00;;;;4854919;29;20053;-65
2024/02/22 03:57:30;;;;;;;0.30;0.30;;;;;10.30;97061.00;;;;4870520;29;20057;-66
2024/02/22 03:59:56;;;;;;;0.35;0.35;;;;;10.40;97064.00;;;;4856433;29;20117;-66
2024/02/22 04:02:24;;;;;;;0.50;0.50;;;;;10.40;97056.00;;;;4856113;29;20088;-66
2024/02/22 04:04:53;;;;;;;0.40;0.40;;;;;10.40;97062.00;;;;4854758;29;20061;-66
2024/02/22 04:07:22;;;;;;;1.45;0.40;;;;;10.40;97057.00;;;;4851444;29;20101;-66
2024/02/22 04:09:51;;;;;;;0.40;0.40;;;;;10.50;97055.00;;;;4845013;29;20077;-66
2024/02/22 04:12:17;;;;;;;0.40;0.40;;;;;10.50;97054.00;;;;4843199;29;20050;-66
2024/02/22 04:14:44;;;;;;;0.40;0.40;;;;;10.40;97053.00;;;;4828408;29;20057;-66
2024/02/22 04:17:11;;;;;;;0.45;0.45;;;;;10.40;97055.00;;;;4844662;29;20046;-65
2024/02/22 04:19:38;;;;;;;0.40;0.40;;;;;10.50;97046.00;;;;4843613;29;20058;-65
2024/02/22 04:22:04;;;;;;;0.50;0.50;;;;;10.50;97046.00;;;;4844405;29;20049;-65
2024/02/22 04:24:31;;;;;;;0.30;0.30;;;;;10.60;97044.00;;;;4843378;29;20115;-66
2024/02/22 04:26:59;;;;;;;0.47;0.47;;;;;10.60;97030.00;;;;4844215;29;20045;-65
2024/02/22 04:29:25;;;;;;;0.60;0.50;;;;;10.60;97031.00;;;;4843342;29;20050;-66
2024/02/22 04:31:52;;;;;;;0.35;0.35;;;;;10.50;97028.00;;;;4845759;29;20092;-66
2024/02/22 04:34:19;;;;;;;0.40;0.40;;;;;10.60;97015.00;;;;4844600;29;20068;-66
2024/02/22 04:36:47;;;;;;;0.40;0.40;;;;;10.50;97030.00;;;;4843008;29;20046;-65
2024/02/22 04:39:15;;;;;;;0.40;0.40;;;;;10.50;97017.00;;;;4843332;29;20080;-65
2024/02/22 04:41:41;;;;;;;1.27;0.40;;;;;10.60;97017.00;;;;4842631;29;20085;-66
2024/02/22 04:44:09;;;;;;;0.40;0.40;;;;;10.60;97003.00;;;;4844466;29;20054;-65
2024/02/22 04:46:36;;;;;;;0.30;0.30;;;;;10.60;97002.00;;;;4828184;29;20049;-68
2024/02/22 04:49:04;;;;;;;0.40;0.40;;;;;10.70;97008.00;;;;4844567;29;20046;-66
2024/02/22 04:51:32;;;;;;;0.40;0.40;;;;;10.70;97004.00;;;;4842756;29;20050;-66
2024/02/22 04:54:03;;;;;;;0.30;0.30;;;;;10.60;96990.00;;;;4842807;29;20426;-66
2024/02/22 04:56:29;;;;;;;0.47;0.40;;;;;10.50;96981.00;;;;4844081;29;20042;-66
2024/02/22 04:58:56;;;;;;;0.75;0.40;;;;;10.50;96980.00;;;;4827423;29;20107;-66
2024/02/22 05:01:27;;;;;;;0.40;0.40;;;;;10.50;96973.00;;;;4842767;29;20054;-67
2024/02/22 05:03:54;;;;;;;0.40;0.40;;;;;10.50;96972.00;;;;4842918;29;20086;-66
2024/02/22 05:06:21;;;;;;;0.40;0.40;;;;;10.40;96973.00;;;;4843824;29;20558;-66
2024/02/22 05:08:48;;;;;;;0.30;0.30;;;;;10.40;96968.00;;;;4842854;29;20090;-66
2024/02/22 05:11:15;;;;;;;0.32;0.32;;;;;10.30;96957.00;;;;4842446;29;20061;-66
2024/02/22 05:13:44;;;;;;;0.30;0.30;;;;;10.30;96959.00;;;;4842829;29;20072;-67
2024/02/22 05:16:11;;;;;;;0.73;0.47;;;;;10.30;96956.00;;;;4842486;29;20099;-65
2024/02/22 05:18:38;;;;;;;0.40;0.40;;;;;10.30;96954.00;;;;4842572;29;20081;-66
2024/02/22 05:21:05;;;;;;;1.42;0.52;;;;;10.40;96956.00;;;;4827063;29;20054;-65
2024/02/22 05:23:32;;;;;;;0.40;0.40;;;;;10.40;96960.00;;;;4843814;29;20045;-66
2024/02/22 05:25:59;;;;;;;0.40;0.35;;;;;10.40;96942.00;;;;4843882;29;20058;-66
2024/02/22 05:28:26;;;;;;;0.47;0.47;;;;;10.40;96943.00;;;;4842356;29;20042;-66
2024/02/22 05:30:53;;;;;;;0.70;0.50;;;;;10.50;96937.00;;;;4843523;29;20050;-67
2024/02/22 05:33:19;;;;;;;0.50;0.50;;;;;10.50;96935.00;;;;4843307;29;20077;-67
2024/02/22 05:35:46;;;;;;;0.40;0.40;;;;;10.50;96932.00;;;;4842251;29;20049;-67
2024/02/22 05:38:13;;;;;;;0.45;0.45;;;;;10.40;96931.00;;;;4842207;29;20411;-67
2024/02/22 05:40:41;;;;;;;0.43;0.43;;;;;10.40;96934.00;;;;4841801;29;20049;-67
2024/02/22 05:43:08;;;;;;;0.45;0.45;;;;;10.40;96925.00;;;;4843238;29;20490;-67
2024/02/22 05:45:42;;;;;;;0.40;0.40;;;;;10.40;96922.00;;;;4843465;29;20407;-67
2024/02/22 05:48:09;;;;;;;0.60;0.60;;;;;10.50;96909.00;;;;4843173;29;20071;-67
2024/02/22 05:50:36;;;;;;;0.60;0.50;;;;;10.50;96895.00;;;;4842826;29;20050;-67
2024/02/22 05:53:03;;;;;;;1.60;0.70;;;;;10.50;96896.00;;;;4841815;29;20042;-67
2024/02/22 05:55:29;;;;;;;0.85;0.80;;;;;10.40;96883.00;;;;4842930;29;20563;-66
2024/02/22 05:57:56;;;;;;;2.03;1.38;;;;;10.40;96895.00;;;;4842610;29;20046;-66
2024/02/22 06:00:24;;;;;;;0.63;0.63;;;;;10.40;96894.00;;;;4841471;29;20124;-66
2024/02/22 06:02:51;;;;;;;1.38;1.20;;;;;10.50;96884.00;;;;4841916;29;20054;-66
2024/02/22 06:05:17;;;;;;;3.10;1.52;;;;;10.50;96884.00;;;;4842846;29;20485;-66
2024/02/22 06:07:44;;;;;;;2.20;1.10;;;;;10.60;96891.00;;;;4842853;29;20049;-65
2024/02/22 06:10:11;;;;;;;0.98;0.77;;;;;10.50;96888.00;;;;4840912;29;20106;-65
2024/02/22 06:12:38;;;;;;;1.10;1.00;;;;;10.50;96882.00;;;;4842775;29;20058;-66
2024/02/22 06:15:05;;;;;;;1.13;0.80;;;;;10.60;96881.00;;;;4826032;29;20564;-66
2024/02/22 06:17:32;;;;;;;2.50;1.48;;;;;10.60;96880.00;;;;4842611;29;20046;-65
2024/02/22 06:20:01;;;;;;;2.55;1.23;;;;;10.60;96875.00;;;;4842599;29;20049;-66
2024/02/22 06:22:28;;;;;;;1.40;1.08;;;;;10.60;96864.00;;;;4842305;29;20058;-66
2024/02/22 06:24:55;;;;;;;1.58;1.08;;;;;10.60;96869.00;;;;4841003;29;20102;-65
2024/02/22 06:27:21;;;;;;;1.23;1.13;;;;;10.70;96869.00;;;;4842256;29;20073;-65
2024/02/22 06:29:48;;;;;;;1.10;1.02;;;;;10.60;96870.00;;;;4842282;29;20057;-65
2024/02/22 06:32:15;;;;;;;1.88;1.63;;;;;10.70;96883.00;;;;4841257;29;20051;-65
2024/02/22 06:34:42;;;;;;;1.08;0.93;;;;;10.60;96865.00;;;;4842840;29;20509;-66
2024/02/22 06:37:10;;;;;;;1.17;0.90;;;;;10.60;96870.00;;;;4842857;29;20124;-67
2024/02/22 06:39:37;;;;;;;1.20;0.90;;;;;10.60;96866.00;;;;4841296;29;20449;-68
2024/02/22 06:42:04;;;;;;;0.82;0.75;;;;;10.60;96873.00;;;;4825585;29;20054;-67
2024/02/22 06:44:30;;;;;;;1.50;1.23;;;;;10.60;96867.00;;;;4842292;29;20062;-67
2024/02/22 06:46:58;;;;;;;1.33;0.85;;;;;10.60;96867.00;;;;4842441;29;20344;-67
2024/02/22 06:49:26;;;;;;;0.70;0.70;;;;;10.60;96869.00;;;;4842408;29;20081;-66
2024/02/22 06:51:57;;;;;;;0.73;0.70;;;;;10.60;96857.00;;;;4840833;29;20046;-66
2024/02/22 06:54:24;;;;;;;2.53;1.20;;;;;10.60;96846.00;;;;4842548;29;20045;-66
2024/02/22 06:56:51;;;;;;;1.92;0.90;;;;;10.60;96842.00;;;;4841135;29;20495;-67
2024/02/22 06:59:18;;;;;;;1.00;0.90;;;;;10.70;96844.00;;;;4841346;29;20049;-68
2024/02/22 07:01:45;;;;;;;2.00;0.90;;;;;10.70;96843.00;;;;4841283;29;20062;-67
2024/02/22 07:04:12;;;;;;;0.60;0.60;;;;;10.70;96825.00;;;;4842185;29;20050;-67
2024/02/22 07:06:39;;;;;;;0.70;0.70;;;;;10.70;96830.00;;;;4841034;29;20054;-67
2024/02/22 07:09:05;;;;;;;0.60;0.60;;;;;10.70;96822.00;;;;4841849;29;20136;-67
2024/02/22 07:11:32;;;;;;;0.70;0.70;;;;;10.80;96823.00;;;;4825462;29;20085;-66
2024/02/22 07:13:59;;;;;;;0.88;0.75;;;;;10.80;96818.00;;;;4841258;29;20085;-67
2024/02/22 07:16:28;;;;;;;0.70;0.70;;;;;10.80;96820.00;;;;4842148;29;20065;-67
2024/02/22 07:18:54;;;;;;;1.65;0.73;;;;;10.80;96812.00;;;;4840992;29;20075;-67
2024/02/22 07:21:21;;;;;;;1.00;0.63;;;;;10.80;96811.00;;;;4840699;29;20101;-68
2024/02/22 07:23:48;;;;;;;0.90;0.90;;;;;10.80;96803.00;;;;4841815;29;20503;-67
2024/02/22 07:26:15;;;;;;;0.65;0.65;;;;;10.90;96808.00;;;;4848764;29;20140;-67
2024/02/22 07:28:42;;;;;;;1.15;1.10;;;;;10.90;96800.00;;;;4841738;29;20455;-66
2024/02/22 07:31:09;;;;;;;1.15;0.80;;;;;11.00;96788.00;;;;4840452;29;20133;-67
2024/02/22 07:33:35;;;;;;;2.60;1.20;;;;;11.00;96788.00;;;;4840687;29;20101;-67
2024/02/22 07:36:02;;;;;;;1.10;1.00;;;;;11.00;96790.00;;;;4841504;29;20054;-66
2024/02/22 07:38:30;;;;;;;1.20;1.02;;;;;11.00;96787.00;;;;4841664;29;20130;-67
2024/02/22 07:41:03;;;;;;;1.27;1.17;;;;;11.00;96782.00;;;;4841427;29;20126;-67
2024/02/22 07:43:30;;;;;;;1.00;0.90;;;;;11.10;96782.00;;;;4840499;29;20050;-67
2024/02/22 07:45:56;;;;;;;0.88;0.85;;;;;11.00;96785.00;;;;4842281;29;20049;-67
2024/02/22 07:48:23;;;;;;;0.70;0.70;;;;;11.00;96792.00;;;;4840879;29;20053;-68
2024/02/22 07:50:50;;;;;;;1.42;0.88;;;;;11.00;96783.00;;;;4840394;29;20567;-68
2024/02/22 07:53:17;;;;;;;0.85;0.70;;;;;11.00;96785.00;;;;4840377;29;20141;-68
2024/02/22 07:55:44;;;;;;;0.98;0.60;;;;;11.00;96777.00;;;;4840486;29;20492;-68
2024/02/22 07:58:10;;;;;;;0.80;0.80;;;;;11.00;96768.00;;;;4839825;29;20609;-68
2024/02/22 08:00:37;;;;;;;0.77;0.50;;;;;11.00;96777.00;;;;4840120;29;20132;-68
2024/02/22 08:03:04;;;;;;;0.73;0.70;;;;;11.00;96782.00;;;;4825021;29;20050;-68
2024/02/22 08:05:31;;;;;;;0.70;0.68;;;;;11.00;96775.00;;;;4841482;29;20050;-68
2024/02/22 08:07:57;;;;;;;1.15;0.85;;;;;11.00;96775.00;;;;4840982;29;20084;-68
2024/02/22 08:10:24;;;;;;;0.73;0.70;;;;;11.00;96770.00;;;;4840059;29;20046;-67
2024/02/22 08:12:51;;;;;;;0.70;0.70;;;;;10.90;96774.00;;;;4840279;29;20053;-68
2024/02/22 08:15:17;;;;;;;1.63;0.90;;;;;10.90;96765.00;;;;4840371;29;20145;-68
2024/02/22 08:17:44;;;;;;;0.82;0.70;;;;;10.90;96768.00;;;;4840296;29;20046;-68
2024/02/22 08:20:11;;;;;;;1.10;1.00;;;;;11.00;96766.00;;;;4841139;29;20434;-68
2024/02/22 08:22:38;;;;;;;0.82;0.82;;;;;11.00;96774.00;;;;4839864;29;20056;-68
2024/02/22 08:25:06;;;;;;;1.00;1.00;;;;;11.00;96764.00;;;;4841311;29;20070;-68
2024/02/22 08:27:32;;;;;;;0.95;0.75;;;;;11.00;96760.00;;;;4841392;29;20403;-68
2024/02/22 08:29:59;;;;;;;1.20;1.10;;;;;10.90;96752.00;;;;4841197;29;20089;-67
2024/02/22 08:32:26;;;;;;;1.33;0.90;;;;;11.00;96736.00;;;;4841632;29;20132;-68
2024/02/22 08:34:53;;;;;;;0.80;0.80;;;;;11.00;96743.00;;;;4844581;29;20038;-68
2024/02/22 08:37:19;;;;;;;0.63;0.63;;;;;11.00;96741.00;;;;4844256;29;20139;-68
2024/02/22 08:39:46;;;;;;;0.63;0.63;;;;;11.00;96727.00;;;;4844511;29;20140;-69
2024/02/22 08:42:12;;;;;;;1.38;0.82;;;;;11.10;96729.00;;;;4843874;29;20468;-68
2024/02/22 08:44:39;;;;;;;0.70;0.70;;;;;11.20;96726.00;;;;4844217;29;20053;-68
2024/02/22 08:47:09;;;;;;;0.70;0.70;;;;;11.20;96712.00;;;;4844297;29;20046;-68
2024/02/22 08:49:36;;;;;;;5.55;1.23;;;;;11.30;96707.00;;;;4844317;29;20042;-69
2024/02/22 08:52:06;;;;;;;3.58;1.67;;;;;11.40;96708.00;;;;4842699;29;20054;-69
2024/02/22 08:54:36;;;;;;;0.60;0.60;;;;;11.40;96700.00;;;;4842911;29;20057;-69
2024/02/22 08:57:02;;;;;;;1.50;0.90;;;;;11.40;96698.00;;;;4842591;29;20054;-69
2024/02/22 08:59:29;;;;;;;0.88;0.63;;;;;11.40;96691.00;;;;4833476;29;20057;-68
2024/02/22 09:01:56;;;;;;;2.20;0.80;;;;;11.50;96684.00;;;;4843977;29;20129;-68
2024/02/22 09:04:26;;;;;;;1.55;0.90;;;;;11.50;96682.00;;;;4844279;29;20050;-68
2024/02/22 09:06:53;;;;;;;1.17;0.75;;;;;11.60;96672.00;;;;4843825;29;20056;-69
2024/02/22 09:09:20;;;;;;;1.50;0.80;;;;;11.70;96671.00;;;;4843871;29;20050;-69
2024/02/22 09:11:48;;;;;;;1.95;0.90;;;;;11.70;96678.00;;;;4842351;29;20050;-68
2024/02/22 09:14:15;;;;;;;1.15;0.90;;;;;11.80;96679.00;;;;4842333;29;20050;-69
2024/02/22 09:16:44;;;;;;;0.70;0.65;;;;;11.80;96669.00;;;;4843950;29;20049;-69
2024/02/22 09:19:11;;;;;;;2.03;0.75;;;;;11.90;96672.00;;;;4842336;29;20049;-68
2024/02/22 09:21:37;;;;;;;1.48;0.70;;;;;11.90;96664.00;;;;4843256;29;20082;-69
2024/02/22 09:24:05;;;;;;;0.85;0.60;;;;;11.90;96671.00;;;;4842420;29;20149;-69
2024/02/22 09:26:31;;;;;;;0.80;0.80;;;;;12.00;96652.00;;;;4843047;29;20124;-70
2024/02/22 09:28:58;;;;;;;2.33;0.70;;;;;12.10;96646.00;;;;4842435;29;20042;-69
2024/02/22 09:31:24;;;;;;;0.57;0.57;;;;;12.00;96641.00;;;;4842175;29;20141;-68
2024/02/22 09:33:51;;;;;;;0.45;0.45;;;;;12.00;96641.00;;;;4843418;29;20052;-68
2024/02/22 09:36:18;;;;;;;1.00;0.95;;;;;11.90;96631.00;;;;4843487;29;20053;-69
2024/02/22 09:38:44;;;;;;;0.80;0.80;;;;;12.00;96626.00;;;;4843300;29;20053;-68
2024/02/22 09:41:11;;;;;;;0.98;0.50;;;;;12.00;96629.00;;;;4841602;29;20050;-68
2024/02/22 09:43:37;;;;;;;0.60;0.60;;;;;12.00;96615.00;;;;4841477;29;20046;-68
2024/02/22 09:46:04;;;;;;;1.00;0.90;;;;;11.90;96624.00;;;;4843048;29;20130;-68
2024/02/22 09:48:32;;;;;;;1.17;0.70;;;;;11.90;96611.00;;;;4843177;29;20042;-69
2024/02/22 09:50:59;;;;;;;0.80;0.70;;;;;11.90;96605.00;;;;4843103;29;20505;-68
2024/02/22 09:53:27;;;;;;;0.60;0.50;;;;;11.90;96608.00;;;;4842330;29;20289;-68
2024/02/22 09:55:55;;;;;;;0.65;0.55;;;;;11.90;96608.00;;;;4843007;29;20046;-68
2024/02/22 09:58:21;;;;;;;0.50;0.50;;;;;11.90;96598.00;;;;4842810;29;20452;-68
2024/02/22 10:00:50;;;;;;;2.15;0.70;;;;;11.80;96598.00;;;;4842735;29;20124;-69
2024/02/22 10:03:28;;;;;;;0.77;0.77;;;;;11.80;96604.00;;;;4842960;29;20476;-68
2024/02/22 10:05:54;;;;;;;1.50;1.20;;;;;11.80;96602.00;;;;4841570;29;20050;-69
2024/02/22 10:08:23;;;;;;;0.50;0.50;;;;;11.70;96599.00;;;;4841709;29;20053;-66
2024/02/22 10:10:55;;;;;;;1.10;1.00;;;;;11.70;96587.00;;;;4842617;29;20145;-67
2024/02/22 10:13:22;;;;;;;0.68;0.68;;;;;11.70;96587.00;;;;4841374;29;20170;-67
2024/02/22 10:15:49;;;;;;;0.50;0.50;;;;;11.70;96577.00;;;;4842960;29;20053;-66
2024/02/22 10:18:25;;;;;;;0.73;0.73;;;;;11.70;96586.00;;;;4859839;29;20393;-66
2024/02/22 10:20:51;;;;;;;0.52;0.52;;;;;11.70;96586.00;;;;4844322;29;20415;-67
2024/02/22 10:23:18;;;;;;;0.77;0.60;;;;;11.70;96573.00;;;;4842579;29;20061;-68
2024/02/22 10:25:45;;;;;;;1.42;0.70;;;;;11.70;96569.00;;;;4840946;29;20153;-67
2024/02/22 10:28:16;;;;;;;0.85;0.63;;;;;11.70;96570.00;;;;4842137;29;20049;-68
2024/02/22 10:30:44;;;;;;;3.25;2.10;;;;;11.70;96564.00;;;;4842343;29;20050;-68
2024/02/22 10:33:11;;;;;;;1.70;0.88;;;;;11.80;96568.00;;;;4840926;29;20085;-68
2024/02/22 10:35:40;;;;;;;0.93;0.93;;;;;11.80;96560.00;;;;4842179;29;20110;-67
2024/02/22 10:38:08;;;;;;;1.98;1.00;;;;;11.80;96543.00;;;;4842307;29;20082;-68
2024/02/22 10:40:35;;;;;;;0.85;0.75;;;;;11.90;96558.00;;;;4840774;29;20060;-66
2024/02/22 10:43:04;;;;;;;1.58;0.55;;;;;11.90;96553.00;;;;4841037;29;20144;-67
2024/02/22 10:45:31;;;;;;;1.70;0.77;;;;;11.90;96525.00;;;;4842306;29;20116;-67
2024/02/22 10:48:04;;;;;;;0.80;0.73;;;;;12.00;96529.00;;;;4841411;29;20403;-66
2024/02/22 10:50:33;;;;;;;0.90;0.82;;;;;12.00;96531.00;;;;4840201;29;20053;-67
2024/02/22 10:53:02;;;;;;;1.10;0.90;;;;;12.00;96521.00;;;;4840116;29;20050;-67
2024/02/22 10:55:34;;;;;;;1.20;1.10;;;;;12.00;96511.00;;;;4837976;29;20398;-67
2024/02/22 10:58:03;;;;;;;0.70;0.70;;;;;12.10;96500.00;;;;4841425;29;20054;-68
2024/02/22 11:00:32;;;;;;;1.10;1.00;;;;;12.20;96488.00;;;;4841772;29;20102;-67
2024/02/22 11:03:00;;;;;;;1.55;1.17;;;;;12.20;96507.00;;;;4842702;29;20046;-68
2024/02/22 11:05:37;;;;;;;0.80;0.80;;;;;12.30;96479.00;;;;4849141;29;20148;-67
2024/02/22 11:08:05;;;;;;;1.02;0.60;;;;;12.30;96470.00;;;;4833840;29;20078;-67
2024/02/22 11:10:32;;;;;;;0.70;0.70;;;;;12.40;96473.00;;;;4846895;29;20081;-66
2024/02/22 11:13:03;;;;;;;0.88;0.70;;;;;12.40;96467.00;;;;4832024;29;20057;-66
2024/02/22 11:15:35;;;;;;;0.80;0.80;;;;;12.40;96451.00;;;;4830875;29;20090;-66
2024/02/22 11:18:03;;;;;;;1.33;1.20;;;;;12.50;96438.00;;;;4826327;29;20110;-65
2024/02/22 11:20:31;;;;;;;1.30;1.10;;;;;12.40;96449.00;;;;4841284;29;20081;-66
2024/02/22 11:22:58;;;;;;;0.95;0.90;;;;;12.40;96442.00;;;;4841466;29;20056;-66
2024/02/22 11:25:25;;;;;;;0.40;0.40;;;;;12.40;96436.00;;;;4842247;29;20054;-66
2024/02/22 11:28:00;;;;;;;0.95;0.65;;;;;12.40;96421.00;;;;4845396;29;20450;-66
2024/02/22 11:30:27;;;;;;;1.58;1.00;;;;;12.50;96402.00;;;;4843879;29;20049;-66
2024/02/22 11:32:54;;;;;;;1.05;0.90;;;;;12.50;96404.00;;;;4825717;29;20452;-65
2024/02/22 11:35:21;;;;;;;2.15;1.00;;;;;12.50;96393.00;;;;4840423;29;20050;-65
2024/02/22 11:37:58;;;;;;;2.28;2.08;;;;;12.50;96399.00;;;;4840225;29;20061;-66
2024/02/22 11:40:26;;;;;;;0.60;0.60;;;;;12.50;96389.00;;;;4825059;29;20054;-66
2024/02/22 11:42:57;;;;;;;1.85;0.80;;;;;12.50;96388.00;;;;4841444;29;20050;-65
2024/02/22 11:45:23;;;;;;;0.98;0.98;;;;;12.50;96373.00;;;;4840369;29;20054;-66
2024/02/22 11:47:50;;;;;;;1.77;0.82;;;;;12.40;96375.00;;;;4840620;29;20060;-66
2024/02/22 11:50:17;;;;;;;1.42;1.00;;;;;12.40;96357.00;;;;4855754;29;20050;-65
2024/02/22 11:52:44;;;;;;;2.70;1.10;;;;;12.50;96361.00;;;;4841662;29;20094;-66
2024/02/22 11:55:11;;;;;;;1.88;0.80;;;;;12.40;96346.00;;;;4844395;29;20053;-66
2024/02/22 11:57:37;;;;;;;0.90;0.80;;;;;12.40;96373.00;;;;4858057;29;20152;-65
2024/02/22 12:00:05;;;;;;;0.80;0.70;;;;;12.30;96359.00;;;;4858322;29;20121;-66
2024/02/22 12:02:38;;;;;;;1.10;0.80;;;;;12.30;96349.00;;;;4858992;29;20084;-66
2024/02/22 12:05:08;;;;;;;1.02;0.90;;;;;12.30;96348.00;;;;4856605;29;20099;-66
2024/02/22 12:07:37;;;;;;;1.02;0.90;;;;;12.30;96349.00;;;;4865229;29;20106;-66
2024/02/22 12:10:05;;;;;;;1.42;0.90;;;;;12.30;96340.00;;;;4866558;29;20053;-66
2024/02/22 12:12:32;;;;;;;2.55;0.93;;;;;12.40;96335.00;;;;4881663;29;20105;-66
2024/02/22 12:15:01;;;;;;;1.10;0.80;;;;;12.40;96339.00;;;;4882748;29;20079;-66
2024/02/22 12:17:30;;;;;;;1.38;0.90;;;;;12.40;96332.00;;;;4866676;29;20041;-67
2024/02/22 12:19:57;;;;;;;1.20;1.00;;;;;12.50;96341.00;;;;4868448;29;20089;-67